sensor_id;sensor_type;location;lat;lon;timestamp;P1;durP1;ratioP1;P2;durP2;ratioP2
15968;SDS011;8085;53.472;9.794;2023-06-10T00:00:34;813.57;;;734.80;;
15968;SDS011;8085;53.472;9.794;2023-06-10T00:03:01;836.70;;;756.30;;
15968;SDS011;8085;53.472;9.794;2023-06-10T00:05:30;845.57;;;762.70;;
15968;SDS011;8085;53.472;9.794;2023-06-10T00:07:57;799.60;;;723.00;;
15968;SDS011;8085;53.472;9.794;2023-06-10T00:10:24;828.60;;;747.57;;
15968;SDS011;8085;53.472;9.794;2023-06-10T00:12:51;802.40;;;724.50;;
15968;SDS011;8085;53.472;9.794;2023-06-10T00:15:21;833.43;;;753.50;;
15968;SDS011;8085;53.472;9.794;2023-06-10T00:17:48;832.30;;;751.57;;
15968;SDS011;8085;53.472;9.794;2023-06-10T00:20:18;767.93;;;695.90;;
15968;SDS011;8085;53.472;9.794;2023-06-10T00:22:48;754.07;;;684.50;;
15968;SDS011;8085;53.472;9.794;2023-06-10T00:25:18;745.93;;;679.13;;
15968;SDS011;8085;53.472;9.794;2023-06-10T00:27:51;734.37;;;665.43;;
15968;SDS011;8085;53.472;9.794;2023-06-10T00:30:20;737.73;;;670.67;;
15968;SDS011;8085;53.472;9.794;2023-06-10T00:32:47;730.17;;;665.53;;
15968;SDS011;8085;53.472;9.794;2023-06-10T00:35:14;774.03;;;700.93;;
15968;SDS011;8085;53.472;9.794;2023-06-10T00:37:43;748.27;;;678.10;;
15968;SDS011;8085;53.472;9.794;2023-06-10T00:40:13;728.50;;;662.63;;
15968;SDS011;8085;53.472;9.794;2023-06-10T00:42:41;719.50;;;654.17;;
15968;SDS011;8085;53.472;9.794;2023-06-10T00:45:08;717.73;;;653.90;;
15968;SDS011;8085;53.472;9.794;2023-06-10T00:47:39;763.83;;;694.23;;
15968;SDS011;8085;53.472;9.794;2023-06-10T00:50:07;716.63;;;652.20;;
15968;SDS011;8085;53.472;9.794;2023-06-10T00:52:34;722.93;;;657.20;;
15968;SDS011;8085;53.472;9.794;2023-06-10T00:55:02;755.93;;;688.60;;
15968;SDS011;8085;53.472;9.794;2023-06-10T00:57:30;736.47;;;671.50;;
15968;SDS011;8085;53.472;9.794;2023-06-10T01:00:00;723.50;;;657.90;;
15968;SDS011;8085;53.472;9.794;2023-06-10T01:02:32;740.50;;;672.97;;
15968;SDS011;8085;53.472;9.794;2023-06-10T01:05:01;715.47;;;652.93;;
15968;SDS011;8085;53.472;9.794;2023-06-10T01:07:37;710.70;;;648.47;;
15968;SDS011;8085;53.472;9.794;2023-06-10T01:10:15;767.93;;;698.97;;
15968;SDS011;8085;53.472;9.794;2023-06-10T01:12:46;714.40;;;650.93;;
15968;SDS011;8085;53.472;9.794;2023-06-10T01:15:24;695.97;;;636.03;;
15968;SDS011;8085;53.472;9.794;2023-06-10T01:17:57;737.43;;;671.10;;
15968;SDS011;8085;53.472;9.794;2023-06-10T01:20:28;731.57;;;666.07;;
15968;SDS011;8085;53.472;9.794;2023-06-10T01:22:58;721.37;;;656.67;;
15968;SDS011;8085;53.472;9.794;2023-06-10T01:25:28;727.63;;;663.20;;
15968;SDS011;8085;53.472;9.794;2023-06-10T01:27:59;745.43;;;678.37;;
15968;SDS011;8085;53.472;9.794;2023-06-10T01:30:32;726.57;;;661.00;;
15968;SDS011;8085;53.472;9.794;2023-06-10T01:33:07;721.07;;;656.93;;
15968;SDS011;8085;53.472;9.794;2023-06-10T01:35:37;689.00;;;627.93;;
15968;SDS011;8085;53.472;9.794;2023-06-10T01:38:07;654.43;;;597.53;;
15968;SDS011;8085;53.472;9.794;2023-06-10T01:40:36;696.90;;;635.63;;
15968;SDS011;8085;53.472;9.794;2023-06-10T01:43:04;707.60;;;645.73;;
15968;SDS011;8085;53.472;9.794;2023-06-10T01:45:31;678.50;;;618.00;;
15968;SDS011;8085;53.472;9.794;2023-06-10T01:47:59;680.47;;;622.23;;
15968;SDS011;8085;53.472;9.794;2023-06-10T01:50:26;685.70;;;625.80;;
15968;SDS011;8085;53.472;9.794;2023-06-10T01:52:53;700.53;;;638.37;;
15968;SDS011;8085;53.472;9.794;2023-06-10T01:55:22;701.33;;;638.03;;
15968;SDS011;8085;53.472;9.794;2023-06-10T01:57:49;673.43;;;612.87;;
15968;SDS011;8085;53.472;9.794;2023-06-10T02:00:17;729.50;;;664.30;;
15968;SDS011;8085;53.472;9.794;2023-06-10T02:02:44;703.23;;;639.93;;
15968;SDS011;8085;53.472;9.794;2023-06-10T02:05:15;685.93;;;626.40;;
15968;SDS011;8085;53.472;9.794;2023-06-10T02:07:42;621.27;;;567.63;;
15968;SDS011;8085;53.472;9.794;2023-06-10T02:10:09;645.67;;;587.90;;
15968;SDS011;8085;53.472;9.794;2023-06-10T02:12:38;655.50;;;597.40;;
15968;SDS011;8085;53.472;9.794;2023-06-10T02:15:06;710.17;;;647.07;;
15968;SDS011;8085;53.472;9.794;2023-06-10T02:17:36;674.13;;;615.60;;
15968;SDS011;8085;53.472;9.794;2023-06-10T02:20:05;646.27;;;588.30;;
15968;SDS011;8085;53.472;9.794;2023-06-10T02:22:36;677.23;;;616.67;;
15968;SDS011;8085;53.472;9.794;2023-06-10T02:25:04;730.80;;;665.17;;
15968;SDS011;8085;53.472;9.794;2023-06-10T02:27:32;665.37;;;604.53;;
15968;SDS011;8085;53.472;9.794;2023-06-10T02:30:01;670.87;;;611.33;;
15968;SDS011;8085;53.472;9.794;2023-06-10T02:32:28;671.53;;;613.13;;
15968;SDS011;8085;53.472;9.794;2023-06-10T02:34:55;686.53;;;626.37;;
15968;SDS011;8085;53.472;9.794;2023-06-10T02:37:23;645.93;;;588.07;;
15968;SDS011;8085;53.472;9.794;2023-06-10T02:39:50;629.77;;;574.83;;
15968;SDS011;8085;53.472;9.794;2023-06-10T02:42:17;632.00;;;575.13;;
15968;SDS011;8085;53.472;9.794;2023-06-10T02:44:47;625.27;;;568.93;;
15968;SDS011;8085;53.472;9.794;2023-06-10T02:47:16;624.37;;;569.40;;
15968;SDS011;8085;53.472;9.794;2023-06-10T02:49:43;655.27;;;597.10;;
15968;SDS011;8085;53.472;9.794;2023-06-10T02:52:11;691.33;;;630.30;;
15968;SDS011;8085;53.472;9.794;2023-06-10T02:54:38;671.67;;;613.17;;
15968;SDS011;8085;53.472;9.794;2023-06-10T02:57:06;640.23;;;582.07;;
15968;SDS011;8085;53.472;9.794;2023-06-10T02:59:39;623.80;;;568.23;;
15968;SDS011;8085;53.472;9.794;2023-06-10T03:02:06;674.30;;;612.77;;
15968;SDS011;8085;53.472;9.794;2023-06-10T03:04:37;646.17;;;587.37;;
15968;SDS011;8085;53.472;9.794;2023-06-10T03:07:06;668.47;;;608.23;;
15968;SDS011;8085;53.472;9.794;2023-06-10T03:09:33;673.33;;;613.33;;
15968;SDS011;8085;53.472;9.794;2023-06-10T03:12:04;648.90;;;591.97;;
15968;SDS011;8085;53.472;9.794;2023-06-10T03:14:34;665.63;;;605.93;;
15968;SDS011;8085;53.472;9.794;2023-06-10T03:17:00;663.43;;;603.80;;
15968;SDS011;8085;53.472;9.794;2023-06-10T03:19:28;666.90;;;608.13;;
15968;SDS011;8085;53.472;9.794;2023-06-10T03:22:06;670.53;;;612.43;;
15968;SDS011;8085;53.472;9.794;2023-06-10T03:24:34;670.63;;;612.27;;
15968;SDS011;8085;53.472;9.794;2023-06-10T03:27:05;712.27;;;648.33;;
15968;SDS011;8085;53.472;9.794;2023-06-10T03:29:32;689.77;;;630.30;;
15968;SDS011;8085;53.472;9.794;2023-06-10T03:31:59;710.30;;;646.73;;
15968;SDS011;8085;53.472;9.794;2023-06-10T03:34:26;657.83;;;599.77;;
15968;SDS011;8085;53.472;9.794;2023-06-10T03:36:54;723.70;;;660.70;;
15968;SDS011;8085;53.472;9.794;2023-06-10T03:39:23;740.80;;;676.10;;
15968;SDS011;8085;53.472;9.794;2023-06-10T03:41:50;755.70;;;688.33;;
15968;SDS011;8085;53.472;9.794;2023-06-10T03:44:17;746.00;;;681.00;;
15968;SDS011;8085;53.472;9.794;2023-06-10T03:46:44;743.53;;;677.67;;
15968;SDS011;8085;53.472;9.794;2023-06-10T03:49:12;720.37;;;656.57;;
15968;SDS011;8085;53.472;9.794;2023-06-10T03:51:40;764.03;;;695.33;;
15968;SDS011;8085;53.472;9.794;2023-06-10T03:54:07;703.63;;;641.73;;
15968;SDS011;8085;53.472;9.794;2023-06-10T03:56:35;719.27;;;655.30;;
15968;SDS011;8085;53.472;9.794;2023-06-10T03:59:02;704.17;;;643.40;;
15968;SDS011;8085;53.472;9.794;2023-06-10T04:01:29;734.80;;;668.40;;
15968;SDS011;8085;53.472;9.794;2023-06-10T04:03:56;718.30;;;655.27;;
15968;SDS011;8085;53.472;9.794;2023-06-10T04:06:23;714.83;;;651.50;;
15968;SDS011;8085;53.472;9.794;2023-06-10T04:08:50;716.03;;;653.20;;
15968;SDS011;8085;53.472;9.794;2023-06-10T04:11:17;709.30;;;646.80;;
15968;SDS011;8085;53.472;9.794;2023-06-10T04:13:45;715.90;;;652.20;;
15968;SDS011;8085;53.472;9.794;2023-06-10T04:16:12;687.40;;;626.00;;
15968;SDS011;8085;53.472;9.794;2023-06-10T04:18:39;665.87;;;607.20;;
15968;SDS011;8085;53.472;9.794;2023-06-10T04:21:07;715.27;;;652.13;;
15968;SDS011;8085;53.472;9.794;2023-06-10T04:23:34;721.57;;;657.73;;
15968;SDS011;8085;53.472;9.794;2023-06-10T04:26:01;699.00;;;637.77;;
15968;SDS011;8085;53.472;9.794;2023-06-10T04:28:30;723.83;;;659.73;;
15968;SDS011;8085;53.472;9.794;2023-06-10T04:30:58;674.97;;;616.70;;
15968;SDS011;8085;53.472;9.794;2023-06-10T04:33:25;707.57;;;645.90;;
15968;SDS011;8085;53.472;9.794;2023-06-10T04:35:53;715.83;;;654.27;;
15968;SDS011;8085;53.472;9.794;2023-06-10T04:38:20;682.23;;;621.87;;
15968;SDS011;8085;53.472;9.794;2023-06-10T04:40:47;682.23;;;622.13;;
15968;SDS011;8085;53.472;9.794;2023-06-10T04:43:14;689.43;;;627.73;;
15968;SDS011;8085;53.472;9.794;2023-06-10T04:45:41;650.30;;;593.20;;
15968;SDS011;8085;53.472;9.794;2023-06-10T04:48:11;628.97;;;572.47;;
15968;SDS011;8085;53.472;9.794;2023-06-10T04:50:38;672.13;;;613.53;;
15968;SDS011;8085;53.472;9.794;2023-06-10T04:53:05;666.63;;;609.27;;
15968;SDS011;8085;53.472;9.794;2023-06-10T04:55:32;669.20;;;610.90;;
15968;SDS011;8085;53.472;9.794;2023-06-10T04:57:59;687.20;;;626.27;;
15968;SDS011;8085;53.472;9.794;2023-06-10T05:00:26;658.77;;;601.03;;
15968;SDS011;8085;53.472;9.794;2023-06-10T05:02:53;658.83;;;601.53;;
15968;SDS011;8085;53.472;9.794;2023-06-10T05:05:22;720.43;;;655.87;;
15968;SDS011;8085;53.472;9.794;2023-06-10T05:07:49;686.67;;;625.53;;
15968;SDS011;8085;53.472;9.794;2023-06-10T05:10:16;678.13;;;618.80;;
15968;SDS011;8085;53.472;9.794;2023-06-10T05:12:43;679.40;;;618.30;;
15968;SDS011;8085;53.472;9.794;2023-06-10T05:15:10;663.13;;;605.73;;
15968;SDS011;8085;53.472;9.794;2023-06-10T05:17:37;694.17;;;633.47;;
15968;SDS011;8085;53.472;9.794;2023-06-10T05:20:04;680.93;;;620.90;;
15968;SDS011;8085;53.472;9.794;2023-06-10T05:22:33;674.00;;;615.83;;
15968;SDS011;8085;53.472;9.794;2023-06-10T05:25:00;630.20;;;575.37;;
15968;SDS011;8085;53.472;9.794;2023-06-10T05:27:28;664.17;;;604.70;;
15968;SDS011;8085;53.472;9.794;2023-06-10T05:29:54;664.37;;;605.33;;
15968;SDS011;8085;53.472;9.794;2023-06-10T05:32:21;714.83;;;650.20;;
15968;SDS011;8085;53.472;9.794;2023-06-10T05:34:48;727.57;;;662.07;;
15968;SDS011;8085;53.472;9.794;2023-06-10T05:37:15;704.83;;;641.17;;
15968;SDS011;8085;53.472;9.794;2023-06-10T05:39:43;672.67;;;614.50;;
15968;SDS011;8085;53.472;9.794;2023-06-10T05:42:10;678.37;;;616.30;;
15968;SDS011;8085;53.472;9.794;2023-06-10T05:44:37;672.23;;;612.60;;
15968;SDS011;8085;53.472;9.794;2023-06-10T05:47:04;685.70;;;624.73;;
15968;SDS011;8085;53.472;9.794;2023-06-10T05:49:31;645.43;;;589.80;;
15968;SDS011;8085;53.472;9.794;2023-06-10T05:51:58;628.33;;;573.97;;
15968;SDS011;8085;53.472;9.794;2023-06-10T05:54:25;669.80;;;612.97;;
15968;SDS011;8085;53.472;9.794;2023-06-10T05:56:53;645.03;;;592.23;;
15968;SDS011;8085;53.472;9.794;2023-06-10T05:59:20;630.93;;;578.57;;
15968;SDS011;8085;53.472;9.794;2023-06-10T06:01:48;657.90;;;604.77;;
15968;SDS011;8085;53.472;9.794;2023-06-10T06:04:15;464.80;;;428.43;;
15968;SDS011;8085;53.472;9.794;2023-06-10T06:06:42;472.03;;;434.70;;
15968;SDS011;8085;53.472;9.794;2023-06-10T06:11:53;630.07;;;572.87;;
15968;SDS011;8085;53.472;9.794;2023-06-10T06:14:20;672.97;;;613.23;;
15968;SDS011;8085;53.472;9.794;2023-06-10T06:16:47;581.90;;;534.10;;
15968;SDS011;8085;53.472;9.794;2023-06-10T06:19:13;535.23;;;490.63;;
15968;SDS011;8085;53.472;9.794;2023-06-10T06:21:40;591.97;;;541.73;;
15968;SDS011;8085;53.472;9.794;2023-06-10T06:24:07;516.20;;;471.23;;
15968;SDS011;8085;53.472;9.794;2023-06-10T06:26:34;623.43;;;569.60;;
15968;SDS011;8085;53.472;9.794;2023-06-10T06:29:02;556.53;;;511.27;;
15968;SDS011;8085;53.472;9.794;2023-06-10T06:31:29;565.33;;;519.53;;
15968;SDS011;8085;53.472;9.794;2023-06-10T06:33:59;600.17;;;549.30;;
15968;SDS011;8085;53.472;9.794;2023-06-10T06:36:26;525.20;;;483.70;;
15968;SDS011;8085;53.472;9.794;2023-06-10T06:38:53;620.13;;;565.73;;
15968;SDS011;8085;53.472;9.794;2023-06-10T06:41:20;619.67;;;568.53;;
15968;SDS011;8085;53.472;9.794;2023-06-10T06:43:47;536.00;;;494.67;;
15968;SDS011;8085;53.472;9.794;2023-06-10T06:46:15;544.97;;;499.83;;
15968;SDS011;8085;53.472;9.794;2023-06-10T06:48:42;577.47;;;523.53;;
15968;SDS011;8085;53.472;9.794;2023-06-10T06:51:08;509.70;;;463.23;;
15968;SDS011;8085;53.472;9.794;2023-06-10T06:53:35;520.53;;;474.53;;
15968;SDS011;8085;53.472;9.794;2023-06-10T06:56:09;586.10;;;537.33;;
15968;SDS011;8085;53.472;9.794;2023-06-10T06:58:35;613.87;;;560.33;;
15968;SDS011;8085;53.472;9.794;2023-06-10T07:01:02;574.97;;;528.43;;
15968;SDS011;8085;53.472;9.794;2023-06-10T07:03:31;479.63;;;436.07;;
15968;SDS011;8085;53.472;9.794;2023-06-10T07:05:57;523.37;;;480.37;;
15968;SDS011;8085;53.472;9.794;2023-06-10T07:08:24;553.27;;;507.77;;
15968;SDS011;8085;53.472;9.794;2023-06-10T07:10:51;536.87;;;490.73;;
15968;SDS011;8085;53.472;9.794;2023-06-10T07:13:18;582.57;;;534.53;;
15968;SDS011;8085;53.472;9.794;2023-06-10T07:15:45;466.43;;;428.40;;
15968;SDS011;8085;53.472;9.794;2023-06-10T07:18:12;512.77;;;472.80;;
15968;SDS011;8085;53.472;9.794;2023-06-10T07:20:42;398.97;;;370.53;;
15968;SDS011;8085;53.472;9.794;2023-06-10T07:23:09;472.30;;;438.33;;
15968;SDS011;8085;53.472;9.794;2023-06-10T07:25:35;469.70;;;434.87;;
15968;SDS011;8085;53.472;9.794;2023-06-10T07:28:03;434.03;;;403.07;;
15968;SDS011;8085;53.472;9.794;2023-06-10T07:30:29;457.80;;;423.93;;
15968;SDS011;8085;53.472;9.794;2023-06-10T07:32:56;505.40;;;465.00;;
15968;SDS011;8085;53.472;9.794;2023-06-10T07:35:23;428.03;;;395.60;;
15968;SDS011;8085;53.472;9.794;2023-06-10T07:37:51;354.60;;;330.03;;
15968;SDS011;8085;53.472;9.794;2023-06-10T07:40:18;326.20;;;302.33;;
15968;SDS011;8085;53.472;9.794;2023-06-10T07:42:45;373.67;;;347.60;;
15968;SDS011;8085;53.472;9.794;2023-06-10T07:45:12;414.17;;;385.93;;
15968;SDS011;8085;53.472;9.794;2023-06-10T07:47:39;388.30;;;360.60;;
15968;SDS011;8085;53.472;9.794;2023-06-10T07:50:06;328.17;;;306.37;;
15968;SDS011;8085;53.472;9.794;2023-06-10T07:52:33;268.10;;;250.67;;
15968;SDS011;8085;53.472;9.794;2023-06-10T07:55:01;363.03;;;338.30;;
15968;SDS011;8085;53.472;9.794;2023-06-10T07:57:29;370.50;;;344.70;;
15968;SDS011;8085;53.472;9.794;2023-06-10T07:59:56;309.87;;;289.40;;
15968;SDS011;8085;53.472;9.794;2023-06-10T08:02:25;277.23;;;259.40;;
15968;SDS011;8085;53.472;9.794;2023-06-10T08:04:52;289.70;;;271.13;;
15968;SDS011;8085;53.472;9.794;2023-06-10T08:07:18;307.37;;;287.73;;
15968;SDS011;8085;53.472;9.794;2023-06-10T08:09:45;259.87;;;243.93;;
15968;SDS011;8085;53.472;9.794;2023-06-10T08:12:13;172.80;;;161.80;;
15968;SDS011;8085;53.472;9.794;2023-06-10T08:14:40;184.30;;;172.53;;
15968;SDS011;8085;53.472;9.794;2023-06-10T08:17:07;205.17;;;192.77;;
15968;SDS011;8085;53.472;9.794;2023-06-10T08:19:34;231.57;;;216.80;;
15968;SDS011;8085;53.472;9.794;2023-06-10T08:22:01;165.47;;;155.87;;
15968;SDS011;8085;53.472;9.794;2023-06-10T08:24:28;157.00;;;147.83;;
15968;SDS011;8085;53.472;9.794;2023-06-10T08:26:54;143.07;;;135.03;;
15968;SDS011;8085;53.472;9.794;2023-06-10T08:29:25;122.83;;;115.90;;
15968;SDS011;8085;53.472;9.794;2023-06-10T08:31:52;116.20;;;109.40;;
15968;SDS011;8085;53.472;9.794;2023-06-10T08:34:19;100.13;;;94.67;;
15968;SDS011;8085;53.472;9.794;2023-06-10T08:36:45;89.63;;;84.03;;
15968;SDS011;8085;53.472;9.794;2023-06-10T08:39:12;136.67;;;128.40;;
15968;SDS011;8085;53.472;9.794;2023-06-10T08:41:40;101.15;;;95.47;;
15968;SDS011;8085;53.472;9.794;2023-06-10T08:44:10;70.35;;;66.20;;
15968;SDS011;8085;53.472;9.794;2023-06-10T08:46:45;57.13;;;53.93;;
15968;SDS011;8085;53.472;9.794;2023-06-10T08:49:15;44.53;;;41.67;;
15968;SDS011;8085;53.472;9.794;2023-06-10T08:51:46;52.60;;;49.22;;
15968;SDS011;8085;53.472;9.794;2023-06-10T08:54:17;34.15;;;31.80;;
15968;SDS011;8085;53.472;9.794;2023-06-10T08:56:48;32.58;;;30.27;;
15968;SDS011;8085;53.472;9.794;2023-06-10T08:59:17;44.65;;;41.72;;
15968;SDS011;8085;53.472;9.794;2023-06-10T09:01:46;46.55;;;43.45;;
15968;SDS011;8085;53.472;9.794;2023-06-10T09:04:13;36.95;;;34.38;;
15968;SDS011;8085;53.472;9.794;2023-06-10T09:06:41;32.50;;;30.25;;
15968;SDS011;8085;53.472;9.794;2023-06-10T09:09:12;38.70;;;36.13;;
15968;SDS011;8085;53.472;9.794;2023-06-10T09:11:40;34.38;;;32.17;;
15968;SDS011;8085;53.472;9.794;2023-06-10T09:14:12;21.77;;;19.95;;
15968;SDS011;8085;53.472;9.794;2023-06-10T09:16:39;22.88;;;21.38;;
15968;SDS011;8085;53.472;9.794;2023-06-10T09:19:10;28.33;;;26.55;;
15968;SDS011;8085;53.472;9.794;2023-06-10T09:21:37;20.60;;;18.52;;
15968;SDS011;8085;53.472;9.794;2023-06-10T09:24:04;27.73;;;25.35;;
15968;SDS011;8085;53.472;9.794;2023-06-10T09:26:31;30.25;;;28.40;;
15968;SDS011;8085;53.472;9.794;2023-06-10T09:29:02;26.30;;;24.58;;
15968;SDS011;8085;53.472;9.794;2023-06-10T09:31:30;21.35;;;19.83;;
15968;SDS011;8085;53.472;9.794;2023-06-10T09:34:04;22.15;;;20.55;;
15968;SDS011;8085;53.472;9.794;2023-06-10T09:36:34;21.50;;;19.58;;
15968;SDS011;8085;53.472;9.794;2023-06-10T09:39:02;20.73;;;19.20;;
15968;SDS011;8085;53.472;9.794;2023-06-10T09:41:33;15.15;;;14.10;;
15968;SDS011;8085;53.472;9.794;2023-06-10T09:44:00;19.08;;;17.67;;
15968;SDS011;8085;53.472;9.794;2023-06-10T09:46:30;14.63;;;13.55;;
15968;SDS011;8085;53.472;9.794;2023-06-10T09:48:58;20.92;;;19.55;;
15968;SDS011;8085;53.472;9.794;2023-06-10T09:51:25;13.75;;;12.65;;
15968;SDS011;8085;53.472;9.794;2023-06-10T09:53:54;12.45;;;11.40;;
15968;SDS011;8085;53.472;9.794;2023-06-10T09:56:21;14.50;;;12.85;;
15968;SDS011;8085;53.472;9.794;2023-06-10T09:58:58;13.90;;;12.73;;
15968;SDS011;8085;53.472;9.794;2023-06-10T10:01:25;12.48;;;10.57;;
15968;SDS011;8085;53.472;9.794;2023-06-10T10:03:51;13.48;;;12.38;;
15968;SDS011;8085;53.472;9.794;2023-06-10T10:06:19;15.85;;;13.35;;
15968;SDS011;8085;53.472;9.794;2023-06-10T10:08:47;19.35;;;16.50;;
15968;SDS011;8085;53.472;9.794;2023-06-10T10:11:18;17.25;;;15.32;;
15968;SDS011;8085;53.472;9.794;2023-06-10T10:13:48;16.20;;;14.65;;
15968;SDS011;8085;53.472;9.794;2023-06-10T10:16:16;16.58;;;15.23;;
15968;SDS011;8085;53.472;9.794;2023-06-10T10:18:46;19.02;;;17.63;;
15968;SDS011;8085;53.472;9.794;2023-06-10T10:21:17;16.95;;;15.60;;
15968;SDS011;8085;53.472;9.794;2023-06-10T10:23:51;24.70;;;23.15;;
15968;SDS011;8085;53.472;9.794;2023-06-10T10:26:25;16.50;;;15.07;;
15968;SDS011;8085;53.472;9.794;2023-06-10T10:28:56;20.85;;;19.45;;
15968;SDS011;8085;53.472;9.794;2023-06-10T10:31:31;20.13;;;18.50;;
15968;SDS011;8085;53.472;9.794;2023-06-10T10:34:02;18.70;;;17.30;;
15968;SDS011;8085;53.472;9.794;2023-06-10T10:36:32;23.02;;;21.55;;
15968;SDS011;8085;53.472;9.794;2023-06-10T10:38:59;19.67;;;18.35;;
15968;SDS011;8085;53.472;9.794;2023-06-10T10:41:29;22.10;;;20.27;;
15968;SDS011;8085;53.472;9.794;2023-06-10T10:43:57;21.27;;;19.65;;
15968;SDS011;8085;53.472;9.794;2023-06-10T10:46:25;20.92;;;19.58;;
15968;SDS011;8085;53.472;9.794;2023-06-10T10:51:29;21.98;;;20.48;;
15968;SDS011;8085;53.472;9.794;2023-06-10T10:54:09;23.67;;;21.88;;
15968;SDS011;8085;53.472;9.794;2023-06-10T10:56:37;23.02;;;21.25;;
15968;SDS011;8085;53.472;9.794;2023-06-10T10:59:04;29.55;;;27.77;;
15968;SDS011;8085;53.472;9.794;2023-06-10T11:01:39;21.38;;;19.75;;
15968;SDS011;8085;53.472;9.794;2023-06-10T11:04:07;22.05;;;20.27;;
15968;SDS011;8085;53.472;9.794;2023-06-10T11:06:36;20.45;;;18.90;;
15968;SDS011;8085;53.472;9.794;2023-06-10T11:09:24;22.75;;;21.15;;
15968;SDS011;8085;53.472;9.794;2023-06-10T11:11:52;18.98;;;17.67;;
15968;SDS011;8085;53.472;9.794;2023-06-10T11:14:28;19.60;;;17.92;;
15968;SDS011;8085;53.472;9.794;2023-06-10T11:16:57;21.75;;;20.17;;
15968;SDS011;8085;53.472;9.794;2023-06-10T11:19:34;24.63;;;22.80;;
15968;SDS011;8085;53.472;9.794;2023-06-10T11:22:05;31.70;;;29.63;;
15968;SDS011;8085;53.472;9.794;2023-06-10T11:24:34;33.40;;;31.38;;
15968;SDS011;8085;53.472;9.794;2023-06-10T11:27:20;30.45;;;28.67;;
15968;SDS011;8085;53.472;9.794;2023-06-10T11:29:58;37.28;;;34.88;;
15968;SDS011;8085;53.472;9.794;2023-06-10T11:32:45;33.97;;;31.77;;
15968;SDS011;8085;53.472;9.794;2023-06-10T11:35:18;34.58;;;32.47;;
15968;SDS011;8085;53.472;9.794;2023-06-10T11:37:48;29.52;;;27.65;;
15968;SDS011;8085;53.472;9.794;2023-06-10T11:40:15;28.40;;;26.63;;
15968;SDS011;8085;53.472;9.794;2023-06-10T11:42:42;27.02;;;25.20;;
15968;SDS011;8085;53.472;9.794;2023-06-10T11:45:09;33.22;;;31.15;;
15968;SDS011;8085;53.472;9.794;2023-06-10T11:47:40;36.85;;;34.45;;
15968;SDS011;8085;53.472;9.794;2023-06-10T11:50:27;36.90;;;34.72;;
15968;SDS011;8085;53.472;9.794;2023-06-10T11:52:56;34.33;;;32.40;;
15968;SDS011;8085;53.472;9.794;2023-06-10T11:55:23;38.20;;;35.38;;
15968;SDS011;8085;53.472;9.794;2023-06-10T11:57:51;38.35;;;35.58;;
15968;SDS011;8085;53.472;9.794;2023-06-10T12:00:22;40.03;;;37.17;;
15968;SDS011;8085;53.472;9.794;2023-06-10T12:02:54;41.05;;;38.38;;
15968;SDS011;8085;53.472;9.794;2023-06-10T12:05:23;38.33;;;36.03;;
15968;SDS011;8085;53.472;9.794;2023-06-10T12:07:50;33.60;;;31.50;;
15968;SDS011;8085;53.472;9.794;2023-06-10T12:10:39;36.58;;;34.22;;
15968;SDS011;8085;53.472;9.794;2023-06-10T12:13:06;36.42;;;33.88;;
15968;SDS011;8085;53.472;9.794;2023-06-10T12:15:34;36.28;;;34.05;;
15968;SDS011;8085;53.472;9.794;2023-06-10T12:18:01;35.45;;;33.20;;
15968;SDS011;8085;53.472;9.794;2023-06-10T12:20:29;43.17;;;40.50;;
15968;SDS011;8085;53.472;9.794;2023-06-10T12:22:58;40.28;;;37.65;;
15968;SDS011;8085;53.472;9.794;2023-06-10T12:25:28;40.40;;;37.15;;
15968;SDS011;8085;53.472;9.794;2023-06-10T12:27:55;41.28;;;38.33;;
15968;SDS011;8085;53.472;9.794;2023-06-10T12:30:24;39.30;;;36.97;;
15968;SDS011;8085;53.472;9.794;2023-06-10T12:32:53;43.78;;;41.08;;
15968;SDS011;8085;53.472;9.794;2023-06-10T12:35:22;33.20;;;30.83;;
15968;SDS011;8085;53.472;9.794;2023-06-10T12:37:57;28.88;;;27.08;;
15968;SDS011;8085;53.472;9.794;2023-06-10T12:40:27;31.20;;;29.13;;
15968;SDS011;8085;53.472;9.794;2023-06-10T12:42:56;32.88;;;30.45;;
15968;SDS011;8085;53.472;9.794;2023-06-10T12:45:27;32.72;;;30.63;;
15968;SDS011;8085;53.472;9.794;2023-06-10T12:48:03;27.65;;;25.80;;
15968;SDS011;8085;53.472;9.794;2023-06-10T12:50:31;30.63;;;27.90;;
15968;SDS011;8085;53.472;9.794;2023-06-10T12:52:58;26.15;;;24.35;;
15968;SDS011;8085;53.472;9.794;2023-06-10T12:55:27;31.13;;;29.13;;
15968;SDS011;8085;53.472;9.794;2023-06-10T12:57:54;25.30;;;23.67;;
15968;SDS011;8085;53.472;9.794;2023-06-10T13:00:22;29.10;;;27.00;;
15968;SDS011;8085;53.472;9.794;2023-06-10T13:02:51;26.85;;;24.75;;
15968;SDS011;8085;53.472;9.794;2023-06-10T13:05:18;27.85;;;26.05;;
15968;SDS011;8085;53.472;9.794;2023-06-10T13:07:45;26.48;;;24.17;;
15968;SDS011;8085;53.472;9.794;2023-06-10T13:10:13;25.20;;;23.20;;
15968;SDS011;8085;53.472;9.794;2023-06-10T13:12:41;22.23;;;20.65;;
15968;SDS011;8085;53.472;9.794;2023-06-10T13:15:08;22.17;;;20.38;;
15968;SDS011;8085;53.472;9.794;2023-06-10T13:17:35;22.98;;;21.42;;
15968;SDS011;8085;53.472;9.794;2023-06-10T13:20:02;21.90;;;20.00;;
15968;SDS011;8085;53.472;9.794;2023-06-10T13:22:30;21.98;;;20.25;;
15968;SDS011;8085;53.472;9.794;2023-06-10T13:24:58;18.00;;;16.55;;
15968;SDS011;8085;53.472;9.794;2023-06-10T13:27:25;20.48;;;19.00;;
15968;SDS011;8085;53.472;9.794;2023-06-10T13:29:53;21.88;;;20.38;;
15968;SDS011;8085;53.472;9.794;2023-06-10T13:32:20;22.15;;;20.67;;
15968;SDS011;8085;53.472;9.794;2023-06-10T13:34:47;24.15;;;22.42;;
15968;SDS011;8085;53.472;9.794;2023-06-10T13:37:14;23.75;;;21.92;;
15968;SDS011;8085;53.472;9.794;2023-06-10T13:39:42;15.25;;;14.15;;
15968;SDS011;8085;53.472;9.794;2023-06-10T13:42:09;17.08;;;15.98;;
15968;SDS011;8085;53.472;9.794;2023-06-10T13:44:36;16.23;;;15.10;;
15968;SDS011;8085;53.472;9.794;2023-06-10T13:47:04;13.20;;;12.00;;
15968;SDS011;8085;53.472;9.794;2023-06-10T13:49:31;10.18;;;9.32;;
15968;SDS011;8085;53.472;9.794;2023-06-10T13:51:58;10.20;;;9.23;;
15968;SDS011;8085;53.472;9.794;2023-06-10T13:54:25;11.50;;;10.48;;
15968;SDS011;8085;53.472;9.794;2023-06-10T13:56:52;11.55;;;10.13;;
15968;SDS011;8085;53.472;9.794;2023-06-10T13:59:19;9.65;;;8.50;;
15968;SDS011;8085;53.472;9.794;2023-06-10T14:01:47;10.10;;;8.40;;
15968;SDS011;8085;53.472;9.794;2023-06-10T14:04:15;8.35;;;7.43;;
15968;SDS011;8085;53.472;9.794;2023-06-10T14:06:42;7.75;;;6.88;;
15968;SDS011;8085;53.472;9.794;2023-06-10T14:09:09;9.63;;;7.10;;
15968;SDS011;8085;53.472;9.794;2023-06-10T14:11:36;10.05;;;6.40;;
15968;SDS011;8085;53.472;9.794;2023-06-10T14:14:03;11.98;;;7.18;;
15968;SDS011;8085;53.472;9.794;2023-06-10T14:16:30;7.53;;;6.72;;
15968;SDS011;8085;53.472;9.794;2023-06-10T14:18:57;8.73;;;6.55;;
15968;SDS011;8085;53.472;9.794;2023-06-10T14:21:25;6.68;;;6.18;;
15968;SDS011;8085;53.472;9.794;2023-06-10T14:23:52;7.07;;;6.28;;
15968;SDS011;8085;53.472;9.794;2023-06-10T14:26:19;7.40;;;5.90;;
15968;SDS011;8085;53.472;9.794;2023-06-10T14:28:46;7.13;;;6.00;;
15968;SDS011;8085;53.472;9.794;2023-06-10T14:31:14;9.55;;;6.38;;
15968;SDS011;8085;53.472;9.794;2023-06-10T14:33:41;8.32;;;6.50;;